createdAt,value
2023-04-13T00:00:08.742Z,8.27
2023-04-13T00:01:16.559Z,6.40
2023-04-13T00:02:18.818Z,7.93
2023-04-13T00:03:24.666Z,7.95
2023-04-13T00:04:27.870Z,4.68
2023-04-13T00:05:34.666Z,5.22
2023-04-13T00:06:48.888Z,6.28
2023-04-13T00:07:54.712Z,5.63
2023-04-13T00:08:57.047Z,6.38
2023-04-13T00:10:02.837Z,5.40
2023-04-13T00:11:06.228Z,6.40
2023-04-13T00:12:11.441Z,8.65
2023-04-13T00:13:15.213Z,8.40
2023-04-13T00:14:20.463Z,9.88
2023-04-13T00:15:22.606Z,7.03
2023-04-13T00:16:31.853Z,6.78
2023-04-13T00:17:34.206Z,8.45
2023-04-13T00:18:40.262Z,6.25
2023-04-13T00:19:43.313Z,7.60
2023-04-13T00:20:48.232Z,9.10
2023-04-13T00:21:50.406Z,6.65
2023-04-13T00:22:55.639Z,6.55
2023-04-13T00:23:57.999Z,6.53
2023-04-13T00:25:03.194Z,8.50
2023-04-13T00:26:06.060Z,5.65
2023-04-13T00:27:11.033Z,6.63
2023-04-13T00:28:13.357Z,8.95
2023-04-13T00:29:18.496Z,6.38
2023-04-13T00:30:21.738Z,6.53
2023-04-13T00:31:29.738Z,7.50
2023-04-13T00:32:31.974Z,5.57
2023-04-13T00:33:36.848Z,5.45
2023-04-13T00:34:40.235Z,6.20
2023-04-13T00:35:45.178Z,6.90
2023-04-13T00:36:47.412Z,5.68
2023-04-13T00:37:52.397Z,5.38
2023-04-13T00:38:54.862Z,6.43
2023-04-13T00:40:00.083Z,11.35
2023-04-13T00:41:05.173Z,10.75
2023-04-13T00:42:08.913Z,8.38
2023-04-13T00:43:16.894Z,8.35
2023-04-13T00:44:20.025Z,7.63
2023-04-13T00:45:25.370Z,5.70
2023-04-13T00:46:32.483Z,5.90
2023-04-13T00:47:37.731Z,5.07
2023-04-13T00:48:42.941Z,5.95
2023-04-13T00:49:45.450Z,9.25
2023-04-13T00:50:50.897Z,8.43
2023-04-13T00:51:53.414Z,8.55
2023-04-13T00:52:58.604Z,8.93
2023-04-13T00:54:01.858Z,9.05
2023-04-13T00:55:07.906Z,9.57
2023-04-13T00:56:11.201Z,10.13
2023-04-13T00:57:16.258Z,10.73
2023-04-13T00:58:18.517Z,9.65
2023-04-13T00:59:23.908Z,11.25
2023-04-13T01:00:27.508Z,7.80
2023-04-13T01:01:35.977Z,9.13
2023-04-13T01:02:42.799Z,8.38
2023-04-13T01:03:48.537Z,9.13
2023-04-13T01:04:51.412Z,11.93
2023-04-13T01:06:06.734Z,9.43
2023-04-13T01:07:16.233Z,10.00
2023-04-13T01:08:28.784Z,9.75
2023-04-13T01:09:38.816Z,9.60
2023-04-13T01:10:49.630Z,8.40
2023-04-13T01:12:00.022Z,8.07
2023-04-13T01:13:25.422Z,10.20
2023-04-13T01:14:34.076Z,9.65
2023-04-13T01:15:43.142Z,9.02
2023-04-13T01:16:55.289Z,8.93
2023-04-13T01:18:10.937Z,8.50
2023-04-13T01:19:36.182Z,10.75
2023-04-13T01:20:43.840Z,9.93
2023-04-13T01:21:46.377Z,10.98
2023-04-13T01:22:57.649Z,8.18
2023-04-13T01:24:18.104Z,8.27
2023-04-13T01:25:37.025Z,10.35
2023-04-13T01:26:50.431Z,10.45
2023-04-13T01:28:00.638Z,9.32
2023-04-13T01:29:03.315Z,8.77
2023-04-13T01:30:11.004Z,9.55
2023-04-13T01:31:17.616Z,11.63
2023-04-13T01:32:20.344Z,8.70
2023-04-13T01:33:25.746Z,9.02
2023-04-13T01:34:28.672Z,8.10
2023-04-13T01:35:34.594Z,7.03
2023-04-13T01:36:40.134Z,6.47
2023-04-13T01:37:45.798Z,9.38
2023-04-13T01:38:50.846Z,8.27
2023-04-13T01:39:53.105Z,5.78
2023-04-13T01:40:58.460Z,9.25
2023-04-13T01:42:00.996Z,7.32
2023-04-13T01:43:11.905Z,6.75
2023-04-13T01:44:14.506Z,7.78
2023-04-13T01:45:21.874Z,8.90
2023-04-13T01:46:28.446Z,6.60
2023-04-13T01:47:37.857Z,7.20
2023-04-13T01:48:45.911Z,6.35
2023-04-13T01:49:57.892Z,7.93
2023-04-13T01:51:04.482Z,7.35
2023-04-13T01:52:11.779Z,8.85
2023-04-13T01:53:20.231Z,8.70
2023-04-13T01:54:28.964Z,7.55
2023-04-13T01:55:33.405Z,8.32
2023-04-13T01:56:39.391Z,6.57
2023-04-13T01:57:47.556Z,7.22
2023-04-13T01:59:00.457Z,7.10
2023-04-13T02:00:14.906Z,8.45
2023-04-13T02:01:19.970Z,8.57
2023-04-13T02:02:23.493Z,8.00
2023-04-13T02:03:29.342Z,6.90
2023-04-13T02:04:32.174Z,8.07
2023-04-13T02:05:40.436Z,7.10
2023-04-13T02:06:42.776Z,6.80
2023-04-13T02:07:48.124Z,9.35
2023-04-13T02:08:52.642Z,8.27
2023-04-13T02:09:58.068Z,8.88
2023-04-13T02:11:01.219Z,11.80
2023-04-13T02:12:08.643Z,7.68
2023-04-13T02:13:13.825Z,9.43
2023-04-13T02:14:21.899Z,11.70
2023-04-13T02:15:24.132Z,9.85
2023-04-13T02:16:29.211Z,9.00
2023-04-13T02:17:31.589Z,8.30
2023-04-13T02:18:37.038Z,6.93
2023-04-13T02:19:39.512Z,9.48
2023-04-13T02:20:47.360Z,8.85
2023-04-13T02:21:49.665Z,7.82
2023-04-13T02:22:55.296Z,9.55
2023-04-13T02:23:58.170Z,8.02
2023-04-13T02:25:03.750Z,7.88
2023-04-13T02:26:08.109Z,8.50
2023-04-13T02:27:13.379Z,8.73
2023-04-13T02:28:16.588Z,9.23
2023-04-13T02:29:24.792Z,10.85
2023-04-13T02:30:28.345Z,7.32
2023-04-13T02:31:34.041Z,7.85
2023-04-13T02:32:38.506Z,7.43
2023-04-13T02:33:43.748Z,7.57
2023-04-13T02:34:46.365Z,12.30
2023-04-13T02:35:51.420Z,7.30
2023-04-13T02:36:53.961Z,7.00
2023-04-13T02:37:59.081Z,5.47
2023-04-13T02:39:01.819Z,7.38
2023-04-13T02:40:09.016Z,5.18
2023-04-13T02:41:11.882Z,14.43
2023-04-13T02:42:16.721Z,9.75
2023-04-13T02:43:18.885Z,10.13
2023-04-13T02:44:27.397Z,8.10
2023-04-13T02:45:31.079Z,11.80
2023-04-13T02:46:36.291Z,7.63
2023-04-13T02:47:39.089Z,8.38
2023-04-13T02:48:44.037Z,6.15
2023-04-13T02:49:47.301Z,7.75
2023-04-13T02:50:52.753Z,6.35
2023-04-13T02:51:55.343Z,7.60
2023-04-13T02:53:00.165Z,7.22
2023-04-13T02:54:03.553Z,7.25
2023-04-13T02:55:10.330Z,7.13
2023-04-13T02:56:14.519Z,8.63
2023-04-13T02:57:19.307Z,8.90
2023-04-13T02:58:23.539Z,9.60
2023-04-13T02:59:31.547Z,7.20
2023-04-13T03:00:34.097Z,7.30
2023-04-13T03:01:40.097Z,6.70
2023-04-13T03:02:43.049Z,6.72
2023-04-13T03:03:48.187Z,6.68
2023-04-13T03:04:50.911Z,6.47
2023-04-13T03:05:55.914Z,6.57
2023-04-13T03:06:58.971Z,9.82
2023-04-13T03:08:05.505Z,6.93
2023-04-13T03:09:08.200Z,8.45
2023-04-13T03:10:14.291Z,7.25
2023-04-13T03:11:17.075Z,7.45
2023-04-13T03:12:22.842Z,10.10
2023-04-13T03:13:25.212Z,8.05
2023-04-13T03:14:33.742Z,5.60
2023-04-13T03:15:35.960Z,5.93
2023-04-13T03:16:40.963Z,5.40
2023-04-13T03:17:44.362Z,5.53
2023-04-13T03:18:51.663Z,5.95
2023-04-13T03:19:54.287Z,5.32
2023-04-13T03:20:59.153Z,5.60
2023-04-13T03:22:01.683Z,5.38
2023-04-13T03:23:06.757Z,8.80
2023-04-13T03:24:09.700Z,6.20
2023-04-13T03:25:17.680Z,6.65
2023-04-13T03:26:19.937Z,9.48
2023-04-13T03:27:24.999Z,7.78
2023-04-13T03:28:27.207Z,5.85
2023-04-13T03:29:35.065Z,8.75
2023-04-13T03:30:37.888Z,6.40
2023-04-13T03:31:45.812Z,5.68
2023-04-13T03:32:48.396Z,5.57
2023-04-13T03:33:53.676Z,5.90
2023-04-13T03:34:55.843Z,6.22
2023-04-13T03:36:00.834Z,5.95
2023-04-13T03:37:06.113Z,4.97
2023-04-13T03:38:08.322Z,5.32
2023-04-13T03:39:13.537Z,6.30
2023-04-13T03:40:15.803Z,8.10
2023-04-13T03:41:20.832Z,7.82
2023-04-13T03:42:23.063Z,8.25
2023-04-13T03:43:27.845Z,8.50
2023-04-13T03:44:33.098Z,9.02
2023-04-13T03:45:38.224Z,7.35
2023-04-13T03:46:41.646Z,7.55
2023-04-13T03:47:46.617Z,7.20
2023-04-13T03:48:48.975Z,7.15
2023-04-13T03:49:54.022Z,6.18
2023-04-13T03:50:56.482Z,6.63
2023-04-13T03:52:01.439Z,5.88
2023-04-13T03:53:03.657Z,6.32
2023-04-13T03:54:09.721Z,5.88
2023-04-13T03:55:12.084Z,8.15
2023-04-13T03:56:17.186Z,8.45
2023-04-13T03:57:19.389Z,9.30
2023-04-13T03:58:24.267Z,9.13
2023-04-13T03:59:26.530Z,6.35
2023-04-13T04:00:34.223Z,6.45
2023-04-13T04:01:36.731Z,5.25
2023-04-13T04:02:41.934Z,4.85
2023-04-13T04:03:44.560Z,9.43
2023-04-13T04:04:49.844Z,5.82
2023-04-13T04:05:52.168Z,4.30
2023-04-13T04:06:58.269Z,7.88
2023-04-13T04:08:00.482Z,5.55
2023-04-13T04:09:05.584Z,5.60
2023-04-13T04:10:09.205Z,7.43
2023-04-13T04:11:14.096Z,7.25
2023-04-13T04:12:16.552Z,9.45
2023-04-13T04:13:21.296Z,10.20
2023-04-13T04:14:23.750Z,9.23
2023-04-13T04:15:28.911Z,10.30
2023-04-13T04:16:33.730Z,8.48
2023-04-13T04:17:40.072Z,6.60
2023-04-13T04:18:42.373Z,7.35
2023-04-13T04:19:47.100Z,7.15
2023-04-13T04:20:49.290Z,6.63
2023-04-13T04:21:54.081Z,8.57
2023-04-13T04:23:01.137Z,7.43
2023-04-13T04:24:06.798Z,6.85
2023-04-13T04:25:10.361Z,7.18
2023-04-13T04:26:15.255Z,8.65
2023-04-13T04:27:20.223Z,8.63
2023-04-13T04:28:22.345Z,9.88
2023-04-13T04:29:30.095Z,9.18
2023-04-13T04:30:34.089Z,6.47
2023-04-13T04:31:44.086Z,9.20
2023-04-13T04:32:46.311Z,7.53
2023-04-13T04:33:51.991Z,6.90
2023-04-13T04:34:54.203Z,7.97
2023-04-13T04:35:58.924Z,7.35
2023-04-13T04:37:08.124Z,7.80
2023-04-13T04:38:19.122Z,10.63
2023-04-13T04:39:22.817Z,10.70
2023-04-13T04:40:28.199Z,9.48
2023-04-13T04:41:31.473Z,7.65
2023-04-13T04:42:37.383Z,8.10
2023-04-13T04:43:39.626Z,6.75
2023-04-13T04:44:45.221Z,10.68
2023-04-13T04:45:52.322Z,7.40
2023-04-13T04:47:00.427Z,8.02
2023-04-13T04:48:04.204Z,8.27
2023-04-13T04:49:09.032Z,6.32
2023-04-13T04:50:12.731Z,7.10
2023-04-13T04:51:17.786Z,13.48
2023-04-13T04:52:21.671Z,8.90
2023-04-13T04:53:27.778Z,8.88
2023-04-13T04:54:29.859Z,8.25
2023-04-13T04:55:35.266Z,6.90
2023-04-13T04:56:37.453Z,6.40
2023-04-13T04:57:42.215Z,8.68
2023-04-13T04:58:44.906Z,6.10
2023-04-13T04:59:49.711Z,7.18
2023-04-13T05:00:53.523Z,6.95
2023-04-13T05:02:01.346Z,6.85
2023-04-13T05:03:03.628Z,7.20
2023-04-13T05:04:08.518Z,6.10
2023-04-13T05:05:11.993Z,7.10
2023-04-13T05:06:17.087Z,8.65
2023-04-13T05:07:19.279Z,9.07
2023-04-13T05:08:24.323Z,7.45
2023-04-13T05:09:26.934Z,7.97
2023-04-13T05:10:31.919Z,7.05
2023-04-13T05:11:34.395Z,6.07
2023-04-13T05:12:39.600Z,6.90
2023-04-13T05:13:42.165Z,7.13
2023-04-13T05:14:48.684Z,6.20
2023-04-13T05:15:50.843Z,7.65
2023-04-13T05:16:55.717Z,12.05
2023-04-13T05:18:00.777Z,7.18
2023-04-13T05:19:08.725Z,7.75
2023-04-13T05:20:12.054Z,10.10
2023-04-13T05:21:18.993Z,10.40
2023-04-13T05:22:21.686Z,10.75
2023-04-13T05:23:27.564Z,10.20
2023-04-13T05:24:29.646Z,8.55
2023-04-13T05:25:34.537Z,9.57
2023-04-13T05:26:36.735Z,9.48
2023-04-13T05:27:41.542Z,8.45
2023-04-13T05:28:43.708Z,8.80
2023-04-13T05:29:48.797Z,9.32
2023-04-13T05:30:51.285Z,8.60
2023-04-13T05:31:56.128Z,9.80
2023-04-13T05:33:05.924Z,8.65
2023-04-13T05:34:12.009Z,8.55
2023-04-13T05:35:14.133Z,10.02
2023-04-13T05:36:19.435Z,10.02
2023-04-13T05:37:21.729Z,11.25
2023-04-13T05:38:26.704Z,8.25
2023-04-13T05:39:29.372Z,8.60
2023-04-13T05:40:35.206Z,9.25
2023-04-13T05:41:37.446Z,8.00
2023-04-13T05:42:42.785Z,9.23
2023-04-13T05:43:46.385Z,9.15
2023-04-13T05:44:51.548Z,9.10
2023-04-13T05:45:56.406Z,8.57
2023-04-13T05:46:58.568Z,7.40
2023-04-13T05:48:05.986Z,8.55
2023-04-13T05:49:08.647Z,7.15
2023-04-13T05:50:14.429Z,7.15
2023-04-13T05:51:16.862Z,9.40
2023-04-13T05:52:22.226Z,9.05
2023-04-13T05:53:24.514Z,8.80
2023-04-13T05:54:29.558Z,9.48
2023-04-13T05:55:32.894Z,7.70
2023-04-13T05:56:38.210Z,7.38
2023-04-13T05:57:41.037Z,9.77
2023-04-13T05:58:46.221Z,7.03
2023-04-13T05:59:48.632Z,8.18
2023-04-13T06:00:53.382Z,7.40
2023-04-13T06:01:59.418Z,6.97
2023-04-13T06:03:04.513Z,7.13
2023-04-13T06:04:12.149Z,7.47
2023-04-13T06:05:15.342Z,8.57
2023-04-13T06:06:21.332Z,8.25
2023-04-13T06:07:28.325Z,9.70
2023-04-13T06:08:32.971Z,8.30
2023-04-13T06:09:39.438Z,8.27
2023-04-13T06:10:44.697Z,9.45
2023-04-13T06:11:49.614Z,9.88
2023-04-13T06:12:53.468Z,9.40
2023-04-13T06:14:00.166Z,10.90
2023-04-13T06:15:05.626Z,8.93
2023-04-13T06:16:09.371Z,7.07
2023-04-13T06:17:14.519Z,8.18
2023-04-13T06:18:22.402Z,8.73
2023-04-13T06:19:29.005Z,9.27
2023-04-13T06:20:34.806Z,7.72
2023-04-13T06:21:36.975Z,7.90
2023-04-13T06:22:42.124Z,9.02
2023-04-13T06:23:44.340Z,6.38
2023-04-13T06:24:49.281Z,7.40
2023-04-13T06:25:55.250Z,7.28
2023-04-13T06:27:00.381Z,6.13
2023-04-13T06:28:02.711Z,7.32
2023-04-13T06:29:07.705Z,6.55
2023-04-13T06:30:11.315Z,8.43
2023-04-13T06:31:16.813Z,6.82
2023-04-13T06:32:19.079Z,7.13
2023-04-13T06:33:26.804Z,10.88
2023-04-13T06:34:28.958Z,9.05
2023-04-13T06:35:34.272Z,7.05
2023-04-13T06:36:37.870Z,9.82
2023-04-13T06:37:42.676Z,6.38
2023-04-13T06:38:45.612Z,6.00
2023-04-13T06:39:50.552Z,7.55
2023-04-13T06:40:52.994Z,6.45
2023-04-13T06:41:57.885Z,7.72
2023-04-13T06:43:02.897Z,8.52
2023-04-13T06:44:10.449Z,6.47
2023-04-13T06:45:13.814Z,6.63
2023-04-13T06:46:19.930Z,11.85
2023-04-13T06:47:22.370Z,7.90
2023-04-13T06:48:30.259Z,9.10
2023-04-13T06:49:33.061Z,8.82
2023-04-13T06:50:37.895Z,8.10
2023-04-13T06:51:40.192Z,8.05
2023-04-13T06:52:45.704Z,9.30
2023-04-13T06:53:51.672Z,9.57
2023-04-13T06:54:53.851Z,7.93
2023-04-13T06:55:58.913Z,9.07
2023-04-13T06:57:02.579Z,9.63
2023-04-13T06:58:07.576Z,8.82
2023-04-13T06:59:09.851Z,8.85
2023-04-13T07:00:28.974Z,9.00
2023-04-13T07:01:35.041Z,8.75
2023-04-13T07:02:37.493Z,9.20
2023-04-13T07:03:45.510Z,9.77
2023-04-13T07:04:47.961Z,8.15
2023-04-13T07:05:53.175Z,6.70
2023-04-13T07:06:55.371Z,9.10
2023-04-13T07:08:00.164Z,7.80
2023-04-13T07:09:02.362Z,7.60
2023-04-13T07:10:08.132Z,8.38
2023-04-13T07:11:11.187Z,7.13
2023-04-13T07:12:16.331Z,8.13
2023-04-13T07:13:18.613Z,9.18
2023-04-13T07:14:23.397Z,9.63
2023-04-13T07:15:25.580Z,11.57
2023-04-13T07:16:30.473Z,10.35
2023-04-13T07:17:32.710Z,7.50
2023-04-13T07:18:38.061Z,6.55
2023-04-13T07:19:46.127Z,9.38
2023-04-13T07:20:51.164Z,7.63
2023-04-13T07:21:53.563Z,7.75
2023-04-13T07:22:58.612Z,7.22
2023-04-13T07:24:00.831Z,6.03
2023-04-13T07:25:06.367Z,7.47
2023-04-13T07:26:13.629Z,7.38
2023-04-13T07:27:21.687Z,9.65
2023-04-13T07:28:26.444Z,12.20
2023-04-13T07:29:28.707Z,19.33
2023-04-13T07:30:33.685Z,9.18
2023-04-13T07:31:35.842Z,8.93
2023-04-13T07:32:40.928Z,9.13
2023-04-13T07:33:43.265Z,9.52
2023-04-13T07:34:51.301Z,8.93
2023-04-13T07:35:55.726Z,8.32
2023-04-13T07:37:01.159Z,8.20
2023-04-13T07:38:06.001Z,9.25
2023-04-13T07:39:09.231Z,8.25
2023-04-13T07:40:15.729Z,7.57
2023-04-13T07:41:22.313Z,9.43
2023-04-13T07:42:27.911Z,10.98
2023-04-13T07:43:32.950Z,10.20
2023-04-13T07:44:37.962Z,7.53
2023-04-13T07:45:40.092Z,7.22
2023-04-13T07:46:45.130Z,7.38
2023-04-13T07:47:47.581Z,7.40
2023-04-13T07:48:52.362Z,7.00
2023-04-13T07:49:59.891Z,8.25
2023-04-13T07:51:02.479Z,6.28
2023-04-13T07:52:07.944Z,6.75
2023-04-13T07:53:13.084Z,8.20
2023-04-13T07:54:16.926Z,7.43
2023-04-13T07:55:21.886Z,11.50
2023-04-13T07:56:26.395Z,8.55
2023-04-13T07:57:31.172Z,8.40
2023-04-13T07:58:33.665Z,6.25
2023-04-13T07:59:38.437Z,6.03
2023-04-13T08:00:44.361Z,5.70
2023-04-13T08:01:49.700Z,6.60
2023-04-13T08:02:56.975Z,11.30
2023-04-13T08:03:59.468Z,9.27
2023-04-13T08:05:09.235Z,5.90
2023-04-13T08:06:11.743Z,7.95
2023-04-13T08:07:16.666Z,7.22
2023-04-13T08:08:21.905Z,11.52
2023-04-13T08:09:24.130Z,10.23
2023-04-13T08:10:29.265Z,10.00
2023-04-13T08:11:31.482Z,6.65
2023-04-13T08:12:36.947Z,10.77
2023-04-13T08:13:39.078Z,8.30
2023-04-13T08:14:43.922Z,10.48
2023-04-13T08:15:46.166Z,8.98
2023-04-13T08:16:50.900Z,8.50
2023-04-13T08:17:55.807Z,10.00
2023-04-13T08:18:58.109Z,9.35
2023-04-13T08:20:04.341Z,8.70
2023-04-13T08:21:16.329Z,8.90
2023-04-13T08:22:18.840Z,11.98
2023-04-13T08:23:24.428Z,9.52
2023-04-13T08:24:27.692Z,9.05
2023-04-13T08:25:32.565Z,10.65
2023-04-13T08:26:34.864Z,7.03
2023-04-13T08:27:40.042Z,7.80
2023-04-13T08:28:42.624Z,9.65
2023-04-13T08:29:47.374Z,7.50
2023-04-13T08:30:49.562Z,7.68
2023-04-13T08:31:54.862Z,9.00
2023-04-13T08:32:58.256Z,6.70
2023-04-13T08:34:04.766Z,7.28
2023-04-13T08:35:08.281Z,9.13
2023-04-13T08:36:17.698Z,8.27
2023-04-13T08:37:21.067Z,10.05
2023-04-13T08:38:25.912Z,9.85
2023-04-13T08:39:28.061Z,9.55
2023-04-13T08:40:34.333Z,9.60
2023-04-13T08:41:39.843Z,8.43
2023-04-13T08:42:46.016Z,8.55
2023-04-13T08:43:52.943Z,7.72
2023-04-13T08:45:01.376Z,7.47
2023-04-13T08:46:06.826Z,9.70
2023-04-13T08:47:13.096Z,9.00
2023-04-13T08:48:15.352Z,9.68
2023-04-13T08:49:20.703Z,9.90
2023-04-13T08:50:26.930Z,11.73
2023-04-13T08:51:32.387Z,11.23
2023-04-13T08:52:38.422Z,9.63
2023-04-13T08:53:40.774Z,9.45
2023-04-13T08:54:46.107Z,9.35
2023-04-13T08:55:53.727Z,8.57
2023-04-13T08:56:57.970Z,10.90
2023-04-13T08:58:06.382Z,8.57
2023-04-13T08:59:09.355Z,7.75
2023-04-13T09:00:17.006Z,8.50
2023-04-13T09:01:21.020Z,9.65
2023-04-13T09:02:28.632Z,10.60
2023-04-13T09:03:38.204Z,8.85
2023-04-13T09:04:45.251Z,7.43
2023-04-13T09:05:55.767Z,7.30
2023-04-13T09:07:04.848Z,9.15
2023-04-13T09:08:08.429Z,9.35
2023-04-13T09:09:14.910Z,7.95
2023-04-13T09:10:20.807Z,9.55
2023-04-13T09:11:22.888Z,10.25
2023-04-13T09:12:27.891Z,13.50
2023-04-13T09:13:30.241Z,11.32
2023-04-13T09:14:36.277Z,8.93
2023-04-13T09:15:42.949Z,11.43
2023-04-13T09:16:47.839Z,8.88
2023-04-13T09:17:50.718Z,9.50
2023-04-13T09:18:56.429Z,11.13
2023-04-13T09:20:15.296Z,10.23
2023-04-13T09:21:20.511Z,13.68
2023-04-13T09:22:28.601Z,10.30
2023-04-13T09:23:33.836Z,11.43
2023-04-13T09:24:40.084Z,10.07
2023-04-13T09:25:45.523Z,9.30
2023-04-13T09:26:52.690Z,11.32
2023-04-13T09:27:58.710Z,8.48
2023-04-13T09:29:06.323Z,8.70
2023-04-13T09:30:13.009Z,8.63
2023-04-13T09:31:26.161Z,9.43
2023-04-13T09:32:28.828Z,12.45
2023-04-13T09:33:37.496Z,9.52
2023-04-13T09:34:43.147Z,7.97
2023-04-13T09:35:47.875Z,8.32
2023-04-13T09:36:54.551Z,8.25
2023-04-13T09:38:02.985Z,8.25
2023-04-13T09:39:28.357Z,7.78
2023-04-13T09:40:38.439Z,10.98
2023-04-13T09:41:46.948Z,8.65
2023-04-13T09:43:02.251Z,10.57
2023-04-13T09:44:20.411Z,7.63
2023-04-13T09:45:25.681Z,7.50
2023-04-13T09:46:30.658Z,9.10
2023-04-13T09:47:37.767Z,8.60
2023-04-13T09:48:43.648Z,8.07
2023-04-13T09:49:48.451Z,7.45
2023-04-13T09:51:05.552Z,7.95
2023-04-13T09:52:21.439Z,8.82
2023-04-13T09:53:29.500Z,13.02
2023-04-13T09:54:32.061Z,10.48
2023-04-13T09:55:38.376Z,9.18
2023-04-13T09:56:45.146Z,8.85
2023-04-13T09:57:49.856Z,8.60
2023-04-13T09:58:54.780Z,11.65
2023-04-13T10:00:01.976Z,9.43
2023-04-13T10:01:07.632Z,11.13
2023-04-13T10:02:10.478Z,8.95
2023-04-13T10:03:19.299Z,5.38
2023-04-13T10:04:21.818Z,13.15
2023-04-13T10:05:29.096Z,14.85
2023-04-13T10:06:32.330Z,16.17
2023-04-13T10:07:38.302Z,45.35
2023-04-13T10:08:46.656Z,31.85
2023-04-13T10:09:51.846Z,61.85
2023-04-13T10:10:54.378Z,9.48
2023-04-13T10:12:00.309Z,139.57
2023-04-13T10:13:08.729Z,98.60
2023-04-13T10:14:19.577Z,321.65
2023-04-13T10:15:34.488Z,137.48
2023-04-13T10:17:05.096Z,18.42
2023-04-13T10:18:19.558Z,9.43
2023-04-13T10:19:28.121Z,182.93
2023-04-13T10:20:33.766Z,67.68
2023-04-13T10:21:39.680Z,10.95
2023-04-13T10:22:47.480Z,10.18
2023-04-13T10:23:53.032Z,13.85
2023-04-13T10:24:57.999Z,13.63
2023-04-13T10:26:04.249Z,11.82
2023-04-13T10:27:12.176Z,10.10
2023-04-13T10:28:17.840Z,11.07
2023-04-13T10:29:28.158Z,10.98
2023-04-13T10:30:33.050Z,613.60
2023-04-13T10:31:39.336Z,14.13
2023-04-13T10:32:44.672Z,14.18
2023-04-13T10:33:50.260Z,13.25
2023-04-13T10:34:56.197Z,13.30
2023-04-13T10:35:59.782Z,12.15
2023-04-13T10:37:07.662Z,13.88
2023-04-13T10:38:10.962Z,62.85
2023-04-13T10:39:28.090Z,7.82
2023-04-13T10:40:33.147Z,23.90
2023-04-13T10:41:35.812Z,24.40
2023-04-13T10:42:52.370Z,376.63
2023-04-13T10:44:05.336Z,606.38
2023-04-13T10:45:20.848Z,571.45
2023-04-13T10:46:25.860Z,249.00
2023-04-13T10:47:40.118Z,135.60
2023-04-13T10:48:46.852Z,102.10
2023-04-13T10:49:50.780Z,58.20
2023-04-13T10:51:01.072Z,43.55
2023-04-13T10:52:06.569Z,26.08
2023-04-13T10:53:11.526Z,23.48
2023-04-13T10:54:18.003Z,26.02
2023-04-13T10:55:26.068Z,41.05
2023-04-13T10:56:30.765Z,34.50
2023-04-13T10:57:34.752Z,42.08
2023-04-13T10:58:39.515Z,57.83
2023-04-13T10:59:56.423Z,120.68
2023-04-13T11:01:03.543Z,8.68
2023-04-13T11:02:07.133Z,9.73
2023-04-13T11:03:12.547Z,10.52
2023-04-13T11:04:19.011Z,37.17
2023-04-13T11:05:21.651Z,11.90
2023-04-13T11:06:27.305Z,70.97
2023-04-13T11:07:30.018Z,215.35
2023-04-13T11:08:36.529Z,207.40
2023-04-13T11:09:42.745Z,144.68
2023-04-13T11:10:54.205Z,110.55
2023-04-13T11:11:56.426Z,91.78
2023-04-13T11:13:02.211Z,90.97
2023-04-13T11:14:04.693Z,53.65
2023-04-13T11:15:11.465Z,29.73
2023-04-13T11:16:14.146Z,47.20
2023-04-13T11:17:22.655Z,57.60
2023-04-13T11:18:26.728Z,69.63
2023-04-13T11:19:31.634Z,66.15
2023-04-13T11:20:37.421Z,70.70
2023-04-13T11:21:39.489Z,57.63
2023-04-13T11:22:47.303Z,69.18
2023-04-13T11:23:55.575Z,79.60
2023-04-13T11:25:12.608Z,280.55
2023-04-13T11:26:17.882Z,14.30
2023-04-13T11:27:21.786Z,13.30
2023-04-13T11:28:27.883Z,521.88
2023-04-13T11:29:32.742Z,393.35
2023-04-13T11:30:35.138Z,207.55
2023-04-13T11:31:41.195Z,257.20
2023-04-13T11:32:48.933Z,20.45
2023-04-13T11:33:51.649Z,18.27
2023-04-13T11:34:58.460Z,10.32
2023-04-13T11:36:04.379Z,40.15
2023-04-13T11:37:07.680Z,9.85
2023-04-13T11:38:20.518Z,9.18
2023-04-13T11:39:25.293Z,16.35
2023-04-13T11:40:33.178Z,15.48
2023-04-13T11:41:40.239Z,14.43
2023-04-13T11:42:47.198Z,20.55
2023-04-13T11:43:52.480Z,52.45
2023-04-13T11:44:55.851Z,16.67
2023-04-13T11:46:02.329Z,9.70
2023-04-13T11:47:11.104Z,12.00
2023-04-13T11:48:14.437Z,11.07
2023-04-13T11:49:19.577Z,10.20
2023-04-13T11:50:22.642Z,13.38
2023-04-13T11:51:28.576Z,23.30
2023-04-13T11:52:32.642Z,41.40
2023-04-13T11:53:38.966Z,41.60
2023-04-13T11:54:43.125Z,22.67
2023-04-13T11:55:53.682Z,15.35
2023-04-13T11:56:59.194Z,12.27
2023-04-13T11:58:10.155Z,86.43
2023-04-13T11:59:15.892Z,211.00
2023-04-13T12:00:24.442Z,11.32
2023-04-13T12:01:34.161Z,16.77
2023-04-13T12:03:00.477Z,13.02
2023-04-13T12:05:22.881Z,11.13
2023-04-13T12:06:28.060Z,21.85
2023-04-13T12:07:31.379Z,14.45
2023-04-13T12:08:37.326Z,13.68
2023-04-13T12:11:30.205Z,10.48
2023-04-13T12:12:51.478Z,12.43
2023-04-13T12:14:07.268Z,13.45
2023-04-13T12:17:01.785Z,15.07
2023-04-13T12:18:02.366Z,11.40
2023-04-13T12:19:12.807Z,13.38
2023-04-13T12:20:16.641Z,25.58
2023-04-13T12:21:23.694Z,13.93
2023-04-13T12:22:47.401Z,15.20
2023-04-13T12:23:58.040Z,49.83
2023-04-13T12:25:03.340Z,37.85
2023-04-13T12:26:33.164Z,63.88
2023-04-13T12:27:43.161Z,49.85
2023-04-13T12:28:48.039Z,57.42
2023-04-13T12:29:52.827Z,42.72
2023-04-13T12:30:54.930Z,15.77
2023-04-13T12:32:05.682Z,12.35
2023-04-13T12:33:12.429Z,13.40
2023-04-13T12:34:17.077Z,11.90
2023-04-13T12:35:19.730Z,12.45
2023-04-13T12:36:27.121Z,14.75
2023-04-13T12:37:29.281Z,13.85
2023-04-13T12:38:34.762Z,13.27
2023-04-13T12:39:39.549Z,15.45
2023-04-13T12:40:41.975Z,11.00
2023-04-13T12:41:49.796Z,12.73
2023-04-13T12:42:52.157Z,13.88
2023-04-13T12:43:57.390Z,11.55
2023-04-13T12:45:02.300Z,9.80
2023-04-13T12:46:04.542Z,11.55
2023-04-13T12:47:11.271Z,33.40
2023-04-13T12:48:13.470Z,113.68
2023-04-13T12:49:18.713Z,342.92
2023-04-13T12:50:23.496Z,228.13
2023-04-13T12:51:26.406Z,383.88
2023-04-13T12:52:32.570Z,401.88
2023-04-13T12:53:35.138Z,362.80
2023-04-13T12:54:40.426Z,392.40
2023-04-13T12:55:46.229Z,380.95
2023-04-13T12:56:53.520Z,375.45
2023-04-13T12:57:56.240Z,382.65
2023-04-13T12:59:01.441Z,375.80
2023-04-13T13:00:10.658Z,352.10
2023-04-13T13:01:16.055Z,301.83
2023-04-13T13:02:18.227Z,525.55
2023-04-13T13:03:23.661Z,530.28
2023-04-13T13:04:25.923Z,513.70
2023-04-13T13:05:31.188Z,522.47
2023-04-13T13:06:34.440Z,547.03
2023-04-13T13:07:39.531Z,534.83
2023-04-13T13:08:44.323Z,507.10
2023-04-13T13:09:46.492Z,532.65
2023-04-13T13:10:51.405Z,449.75
2023-04-13T13:11:56.842Z,14.32
2023-04-13T13:13:04.126Z,14.27
2023-04-13T13:14:11.181Z,11.57
2023-04-13T13:15:15.494Z,10.57
2023-04-13T13:16:21.042Z,12.85
2023-04-13T13:17:26.171Z,12.27
2023-04-13T13:18:42.771Z,12.60
2023-04-13T13:19:54.938Z,9.60
2023-04-13T13:20:59.639Z,10.35
2023-04-13T13:22:02.128Z,11.63
2023-04-13T13:23:07.003Z,9.43
2023-04-13T13:24:09.335Z,9.68
2023-04-13T13:25:25.678Z,23.02
2023-04-13T13:26:33.048Z,43.75
2023-04-13T13:28:13.163Z,83.75
2023-04-13T13:29:19.512Z,184.60
2023-04-13T13:30:25.520Z,214.90
2023-04-13T13:31:27.883Z,306.23
2023-04-13T13:32:32.683Z,102.55
2023-04-13T13:33:34.935Z,23.10
2023-04-13T13:34:40.106Z,13.82
2023-04-13T13:35:42.182Z,64.57
2023-04-13T13:36:47.125Z,47.00
2023-04-13T13:37:51.766Z,13.15
2023-04-13T13:38:54.124Z,13.63
2023-04-13T13:39:59.392Z,13.82
2023-04-13T13:41:04.553Z,12.52
2023-04-13T13:42:06.983Z,14.48
2023-04-13T13:43:14.537Z,10.40
2023-04-13T13:44:16.850Z,10.77
2023-04-13T13:45:21.863Z,37.05
2023-04-13T13:46:24.111Z,13.30
2023-04-13T13:47:28.940Z,14.00
2023-04-13T13:48:31.054Z,14.02
2023-04-13T13:49:35.944Z,18.60
2023-04-13T13:50:38.130Z,15.40
2023-04-13T13:51:42.852Z,17.15
2023-04-13T13:53:01.635Z,10.98
2023-04-13T13:54:07.749Z,12.07
2023-04-13T13:55:10.177Z,11.95
2023-04-13T13:56:15.122Z,12.23
2023-04-13T13:57:17.494Z,31.90
2023-04-13T13:58:25.090Z,11.95
2023-04-13T13:59:27.240Z,13.80
2023-04-13T14:00:32.427Z,13.30
2023-04-13T14:01:34.727Z,12.77
2023-04-13T14:02:39.710Z,78.38
2023-04-13T14:03:41.983Z,11.55
2023-04-13T14:04:48.280Z,9.85
2023-04-13T14:05:50.349Z,10.63
2023-04-13T14:06:55.273Z,36.95
2023-04-13T14:07:57.494Z,17.08
2023-04-13T14:09:04.299Z,11.43
2023-04-13T14:10:08.152Z,11.45
2023-04-13T14:11:14.820Z,120.70
2023-04-13T14:12:17.248Z,232.05
2023-04-13T14:13:24.565Z,273.02
2023-04-13T14:14:32.519Z,29.45
2023-04-13T14:15:37.586Z,26.33
2023-04-13T14:16:39.795Z,571.42
2023-04-13T14:17:52.527Z,677.03
2023-04-13T14:18:58.341Z,653.72
2023-04-13T14:20:06.606Z,591.08
2023-04-13T14:21:11.820Z,548.40
2023-04-13T14:22:14.063Z,501.25
2023-04-13T14:23:19.568Z,488.98
2023-04-13T14:24:22.079Z,424.17
2023-04-13T14:25:27.579Z,422.88